sensor_id;sensor_type;location;lat;lon;timestamp;pressure;altitude;pressure_sealevel;temperature;humidity
71109;BME280;59614;51.012;-1.648;2023-04-04T00:00:08;101950.28;;;5.54;67.30
71109;BME280;59614;51.012;-1.648;2023-04-04T00:02:33;101957.38;;;5.28;67.88
71109;BME280;59614;51.012;-1.648;2023-04-04T00:04:59;101941.31;;;5.46;67.69
71109;BME280;59614;51.012;-1.648;2023-04-04T00:07:24;101945.59;;;5.42;67.69
71109;BME280;59614;51.012;-1.648;2023-04-04T00:09:50;101944.16;;;5.53;67.21
71109;BME280;59614;51.012;-1.648;2023-04-04T00:12:16;101939.28;;;5.66;66.66
71109;BME280;59614;51.012;-1.648;2023-04-04T00:14:42;101932.97;;;5.59;66.40
71109;BME280;59614;51.012;-1.648;2023-04-04T00:17:07;101937.16;;;5.52;67.49
71109;BME280;59614;51.012;-1.648;2023-04-04T00:19:33;101937.41;;;5.31;68.29
71109;BME280;59614;51.012;-1.648;2023-04-04T00:21:58;101932.44;;;5.40;67.50
71109;BME280;59614;51.012;-1.648;2023-04-04T00:24:24;101929.88;;;5.42;67.80
71109;BME280;59614;51.012;-1.648;2023-04-04T00:26:51;101934.31;;;5.45;67.78
71109;BME280;59614;51.012;-1.648;2023-04-04T00:29:16;101924.06;;;5.22;68.55
71109;BME280;59614;51.012;-1.648;2023-04-04T00:31:42;101929.47;;;4.99;69.94
71109;BME280;59614;51.012;-1.648;2023-04-04T00:34:08;101930.22;;;5.24;68.85
71109;BME280;59614;51.012;-1.648;2023-04-04T00:36:33;101933.16;;;5.35;68.48
71109;BME280;59614;51.012;-1.648;2023-04-04T00:38:59;101929.78;;;5.39;69.17
71109;BME280;59614;51.012;-1.648;2023-04-04T00:41:24;101929.94;;;5.15;68.96
71109;BME280;59614;51.012;-1.648;2023-04-04T00:43:50;101927.72;;;5.27;69.52
71109;BME280;59614;51.012;-1.648;2023-04-04T00:46:16;101930.09;;;5.19;69.89
71109;BME280;59614;51.012;-1.648;2023-04-04T00:48:43;101928.28;;;5.17;69.33
71109;BME280;59614;51.012;-1.648;2023-04-04T00:51:08;101928.78;;;5.05;69.91
71109;BME280;59614;51.012;-1.648;2023-04-04T00:53:35;101924.75;;;4.87;70.59
71109;BME280;59614;51.012;-1.648;2023-04-04T00:56:02;101928.91;;;5.09;70.44
71109;BME280;59614;51.012;-1.648;2023-04-04T00:58:28;101923.78;;;4.84;71.35
71109;BME280;59614;51.012;-1.648;2023-04-04T01:00:54;101929.31;;;4.93;71.26
71109;BME280;59614;51.012;-1.648;2023-04-04T01:03:20;101927.66;;;4.97;71.29
71109;BME280;59614;51.012;-1.648;2023-04-04T01:05:46;101928.00;;;4.80;72.21
71109;BME280;59614;51.012;-1.648;2023-04-04T01:08:12;101926.34;;;4.82;72.06
71109;BME280;59614;51.012;-1.648;2023-04-04T01:10:38;101927.53;;;4.64;72.55
71109;BME280;59614;51.012;-1.648;2023-04-04T01:13:04;101925.78;;;4.65;73.38
71109;BME280;59614;51.012;-1.648;2023-04-04T01:15:30;101920.13;;;4.51;74.02
71109;BME280;59614;51.012;-1.648;2023-04-04T01:17:59;101923.84;;;4.32;75.16
71109;BME280;59614;51.012;-1.648;2023-04-04T01:20:28;101927.06;;;4.51;74.49
71109;BME280;59614;51.012;-1.648;2023-04-04T01:22:55;101928.00;;;4.53;73.08
71109;BME280;59614;51.012;-1.648;2023-04-04T01:25:29;101921.09;;;4.55;72.53
71109;BME280;59614;51.012;-1.648;2023-04-04T01:27:57;101925.69;;;4.62;72.46
71109;BME280;59614;51.012;-1.648;2023-04-04T01:30:23;101916.16;;;4.64;72.23
71109;BME280;59614;51.012;-1.648;2023-04-04T01:33:04;101919.44;;;4.57;71.97
71109;BME280;59614;51.012;-1.648;2023-04-04T01:35:52;101914.53;;;4.40;72.36
71109;BME280;59614;51.012;-1.648;2023-04-04T01:38:58;101914.56;;;4.14;73.56
71109;BME280;59614;51.012;-1.648;2023-04-04T01:41:22;101907.59;;;4.15;73.83
71109;BME280;59614;51.012;-1.648;2023-04-04T01:43:49;101912.41;;;4.02;73.94
71109;BME280;59614;51.012;-1.648;2023-04-04T01:46:16;101912.22;;;4.22;74.23
71109;BME280;59614;51.012;-1.648;2023-04-04T01:48:42;101914.88;;;4.24;73.62
71109;BME280;59614;51.012;-1.648;2023-04-04T01:51:07;101901.38;;;4.37;72.41
71109;BME280;59614;51.012;-1.648;2023-04-04T01:53:33;101909.66;;;4.51;72.35
71109;BME280;59614;51.012;-1.648;2023-04-04T01:55:58;101905.59;;;4.33;72.01
71109;BME280;59614;51.012;-1.648;2023-04-04T01:58:24;101913.63;;;4.38;71.94
71109;BME280;59614;51.012;-1.648;2023-04-04T02:00:50;101914.94;;;4.53;72.04
71109;BME280;59614;51.012;-1.648;2023-04-04T02:03:15;101916.91;;;4.32;73.23
71109;BME280;59614;51.012;-1.648;2023-04-04T02:05:41;101911.31;;;4.22;73.55
71109;BME280;59614;51.012;-1.648;2023-04-04T02:08:07;101905.78;;;4.12;75.02
71109;BME280;59614;51.012;-1.648;2023-04-04T02:10:34;101905.38;;;4.00;74.89
71109;BME280;59614;51.012;-1.648;2023-04-04T02:13:00;101900.81;;;3.94;75.39
71109;BME280;59614;51.012;-1.648;2023-04-04T02:15:26;101891.72;;;3.83;76.54
71109;BME280;59614;51.012;-1.648;2023-04-04T02:17:52;101892.44;;;3.79;76.41
71109;BME280;59614;51.012;-1.648;2023-04-04T02:20:17;101896.97;;;3.84;76.52
71109;BME280;59614;51.012;-1.648;2023-04-04T02:22:53;101896.09;;;3.84;77.00
71109;BME280;59614;51.012;-1.648;2023-04-04T02:25:20;101886.28;;;3.77;77.38
71109;BME280;59614;51.012;-1.648;2023-04-04T02:27:47;101881.97;;;3.79;75.86
71109;BME280;59614;51.012;-1.648;2023-04-04T02:30:12;101881.09;;;3.78;75.28
71109;BME280;59614;51.012;-1.648;2023-04-04T02:32:38;101882.94;;;3.81;75.54
71109;BME280;59614;51.012;-1.648;2023-04-04T02:35:04;101887.59;;;3.90;74.68
71109;BME280;59614;51.012;-1.648;2023-04-04T02:37:30;101882.50;;;3.93;74.24
71109;BME280;59614;51.012;-1.648;2023-04-04T02:39:56;101887.78;;;3.96;73.79
71109;BME280;59614;51.012;-1.648;2023-04-04T02:42:21;101882.84;;;4.04;73.48
71109;BME280;59614;51.012;-1.648;2023-04-04T02:44:47;101882.38;;;4.15;72.86
71109;BME280;59614;51.012;-1.648;2023-04-04T02:47:12;101887.75;;;4.20;72.65
71109;BME280;59614;51.012;-1.648;2023-04-04T02:49:38;101882.31;;;4.14;71.97
71109;BME280;59614;51.012;-1.648;2023-04-04T02:52:04;101883.78;;;4.06;72.30
71109;BME280;59614;51.012;-1.648;2023-04-04T02:54:29;101878.25;;;3.96;72.59
71109;BME280;59614;51.012;-1.648;2023-04-04T02:56:55;101881.41;;;3.88;73.28
71109;BME280;59614;51.012;-1.648;2023-04-04T02:59:20;101882.38;;;3.90;72.54
71109;BME280;59614;51.012;-1.648;2023-04-04T03:01:46;101878.81;;;3.88;73.06
71109;BME280;59614;51.012;-1.648;2023-04-04T03:04:11;101880.09;;;4.00;72.00
71109;BME280;59614;51.012;-1.648;2023-04-04T03:06:38;101879.44;;;4.06;71.69
71109;BME280;59614;51.012;-1.648;2023-04-04T03:09:05;101882.94;;;4.07;72.83
71109;BME280;59614;51.012;-1.648;2023-04-04T03:11:31;101879.53;;;4.09;71.85
71109;BME280;59614;51.012;-1.648;2023-04-04T03:13:56;101876.44;;;3.94;72.49
71109;BME280;59614;51.012;-1.648;2023-04-04T03:16:22;101880.44;;;3.84;72.74
71109;BME280;59614;51.012;-1.648;2023-04-04T03:18:48;101875.53;;;3.93;73.00
71109;BME280;59614;51.012;-1.648;2023-04-04T03:21:14;101881.13;;;4.04;72.41
71109;BME280;59614;51.012;-1.648;2023-04-04T03:23:40;101874.88;;;4.00;72.15
71109;BME280;59614;51.012;-1.648;2023-04-04T03:26:07;101879.03;;;3.94;72.53
71109;BME280;59614;51.012;-1.648;2023-04-04T03:28:33;101870.28;;;3.67;74.35
71109;BME280;59614;51.012;-1.648;2023-04-04T03:31:03;101874.53;;;3.90;73.61
71109;BME280;59614;51.012;-1.648;2023-04-04T03:33:29;101867.91;;;3.99;73.53
71109;BME280;59614;51.012;-1.648;2023-04-04T03:35:54;101863.56;;;4.00;73.28
71109;BME280;59614;51.012;-1.648;2023-04-04T03:38:20;101864.25;;;3.94;73.61
71109;BME280;59614;51.012;-1.648;2023-04-04T03:40:46;101857.50;;;4.01;73.65
71109;BME280;59614;51.012;-1.648;2023-04-04T03:43:11;101858.34;;;4.00;73.75
71109;BME280;59614;51.012;-1.648;2023-04-04T03:45:37;101852.47;;;3.55;75.28
71109;BME280;59614;51.012;-1.648;2023-04-04T03:48:02;101862.72;;;3.75;75.31
71109;BME280;59614;51.012;-1.648;2023-04-04T03:50:28;101872.59;;;3.84;74.35
71109;BME280;59614;51.012;-1.648;2023-04-04T03:52:54;101866.38;;;3.80;74.88
71109;BME280;59614;51.012;-1.648;2023-04-04T03:55:22;101866.38;;;3.80;74.47
71109;BME280;59614;51.012;-1.648;2023-04-04T03:57:48;101871.38;;;3.74;74.48
71109;BME280;59614;51.012;-1.648;2023-04-04T04:00:14;101877.00;;;3.85;74.42
71109;BME280;59614;51.012;-1.648;2023-04-04T04:02:40;101873.44;;;3.83;74.49
71109;BME280;59614;51.012;-1.648;2023-04-04T04:05:06;101872.97;;;3.69;74.35
71109;BME280;59614;51.012;-1.648;2023-04-04T04:07:32;101869.06;;;3.58;75.23
71109;BME280;59614;51.012;-1.648;2023-04-04T04:09:57;101876.00;;;3.57;75.80
71109;BME280;59614;51.012;-1.648;2023-04-04T04:12:23;101873.84;;;3.45;76.39
71109;BME280;59614;51.012;-1.648;2023-04-04T04:14:50;101876.19;;;3.37;76.77
71109;BME280;59614;51.012;-1.648;2023-04-04T04:17:16;101869.22;;;3.38;76.67
71109;BME280;59614;51.012;-1.648;2023-04-04T04:19:41;101863.41;;;3.45;77.08
71109;BME280;59614;51.012;-1.648;2023-04-04T04:22:06;101871.16;;;3.44;76.84
71109;BME280;59614;51.012;-1.648;2023-04-04T04:24:32;101871.78;;;3.61;76.35
71109;BME280;59614;51.012;-1.648;2023-04-04T04:26:57;101872.19;;;3.47;76.05
71109;BME280;59614;51.012;-1.648;2023-04-04T04:29:23;101873.84;;;3.45;76.06
71109;BME280;59614;51.012;-1.648;2023-04-04T04:31:49;101863.19;;;3.39;76.28
71109;BME280;59614;51.012;-1.648;2023-04-04T04:34:16;101869.47;;;3.44;76.34
71109;BME280;59614;51.012;-1.648;2023-04-04T04:36:41;101867.53;;;3.38;76.51
71109;BME280;59614;51.012;-1.648;2023-04-04T04:39:07;101867.72;;;3.45;76.38
71109;BME280;59614;51.012;-1.648;2023-04-04T04:41:32;101879.25;;;3.26;76.82
71109;BME280;59614;51.012;-1.648;2023-04-04T04:43:58;101869.63;;;3.24;77.15
71109;BME280;59614;51.012;-1.648;2023-04-04T04:46:23;101872.94;;;3.20;77.29
71109;BME280;59614;51.012;-1.648;2023-04-04T04:48:49;101872.34;;;3.05;78.42
71109;BME280;59614;51.012;-1.648;2023-04-04T04:51:14;101868.22;;;3.10;78.22
71109;BME280;59614;51.012;-1.648;2023-04-04T04:53:40;101866.28;;;3.04;78.23
71109;BME280;59614;51.012;-1.648;2023-04-04T04:56:06;101870.50;;;3.25;78.31
71109;BME280;59614;51.012;-1.648;2023-04-04T04:58:32;101867.78;;;3.22;77.80
71109;BME280;59614;51.012;-1.648;2023-04-04T05:00:57;101866.94;;;3.23;77.59
71109;BME280;59614;51.012;-1.648;2023-04-04T05:03:23;101865.44;;;3.30;77.45
71109;BME280;59614;51.012;-1.648;2023-04-04T05:05:49;101865.00;;;3.17;78.17
71109;BME280;59614;51.012;-1.648;2023-04-04T05:08:15;101858.28;;;3.24;78.13
71109;BME280;59614;51.012;-1.648;2023-04-04T05:10:41;101863.69;;;3.29;77.93
71109;BME280;59614;51.012;-1.648;2023-04-04T05:13:06;101863.75;;;3.30;77.22
71109;BME280;59614;51.012;-1.648;2023-04-04T05:15:34;101868.06;;;3.30;77.28
71109;BME280;59614;51.012;-1.648;2023-04-04T05:18:00;101859.28;;;3.28;77.08
71109;BME280;59614;51.012;-1.648;2023-04-04T05:20:26;101865.19;;;3.46;76.54
71109;BME280;59614;51.012;-1.648;2023-04-04T05:22:51;101875.03;;;3.29;77.03
71109;BME280;59614;51.012;-1.648;2023-04-04T05:25:17;101864.88;;;3.37;77.50
71109;BME280;59614;51.012;-1.648;2023-04-04T05:27:46;101865.19;;;3.46;76.78
71109;BME280;59614;51.012;-1.648;2023-04-04T05:30:12;101862.78;;;3.52;75.94
71109;BME280;59614;51.012;-1.648;2023-04-04T05:32:38;101858.06;;;3.42;77.31
71109;BME280;59614;51.012;-1.648;2023-04-04T05:35:04;101860.13;;;3.27;77.30
71109;BME280;59614;51.012;-1.648;2023-04-04T05:37:29;101862.31;;;2.91;78.38
71109;BME280;59614;51.012;-1.648;2023-04-04T05:39:55;101857.09;;;3.14;78.04
71109;BME280;59614;51.012;-1.648;2023-04-04T05:42:20;101864.41;;;3.24;77.95
71109;BME280;59614;51.012;-1.648;2023-04-04T05:44:46;101867.03;;;3.24;78.31
71109;BME280;59614;51.012;-1.648;2023-04-04T05:47:11;101865.84;;;2.93;80.31
71109;BME280;59614;51.012;-1.648;2023-04-04T05:49:37;101868.94;;;3.06;80.00
71109;BME280;59614;51.012;-1.648;2023-04-04T05:52:02;101867.72;;;2.96;79.94
71109;BME280;59614;51.012;-1.648;2023-04-04T05:54:28;101868.84;;;3.27;79.32
71109;BME280;59614;51.012;-1.648;2023-04-04T05:56:53;101874.38;;;3.12;79.43
71109;BME280;59614;51.012;-1.648;2023-04-04T05:59:19;101873.09;;;2.78;80.76
71109;BME280;59614;51.012;-1.648;2023-04-04T06:01:46;101870.72;;;3.07;79.86
71109;BME280;59614;51.012;-1.648;2023-04-04T06:04:11;101872.63;;;2.88;80.99
71109;BME280;59614;51.012;-1.648;2023-04-04T06:06:37;101861.75;;;3.47;78.80
71109;BME280;59614;51.012;-1.648;2023-04-04T06:09:03;101869.16;;;3.61;77.46
71109;BME280;59614;51.012;-1.648;2023-04-04T06:11:29;101864.28;;;3.46;77.96
71109;BME280;59614;51.012;-1.648;2023-04-04T06:13:54;101876.00;;;3.57;77.60
71109;BME280;59614;51.012;-1.648;2023-04-04T06:16:20;101868.72;;;3.73;78.00
71109;BME280;59614;51.012;-1.648;2023-04-04T06:18:46;101882.69;;;3.99;76.69
71109;BME280;59614;51.012;-1.648;2023-04-04T06:21:12;101884.88;;;4.12;75.27
71109;BME280;59614;51.012;-1.648;2023-04-04T06:23:38;101893.06;;;4.23;75.23
71109;BME280;59614;51.012;-1.648;2023-04-04T06:26:04;101885.09;;;3.93;75.75
71109;BME280;59614;51.012;-1.648;2023-04-04T06:28:30;101896.16;;;4.37;75.42
71109;BME280;59614;51.012;-1.648;2023-04-04T06:30:56;101901.47;;;4.68;73.75
71109;BME280;59614;51.012;-1.648;2023-04-04T06:33:21;101902.25;;;4.65;73.19
71109;BME280;59614;51.012;-1.648;2023-04-04T06:35:47;101908.28;;;4.62;73.15
71109;BME280;59614;51.012;-1.648;2023-04-04T06:38:12;101909.09;;;4.89;72.31
71109;BME280;59614;51.012;-1.648;2023-04-04T06:40:38;101910.59;;;4.81;72.35
71109;BME280;59614;51.012;-1.648;2023-04-04T06:43:04;101909.13;;;4.90;71.09
71109;BME280;59614;51.012;-1.648;2023-04-04T06:45:29;101908.34;;;5.22;70.54
71109;BME280;59614;51.012;-1.648;2023-04-04T06:47:58;101902.19;;;5.50;69.56
71109;BME280;59614;51.012;-1.648;2023-04-04T06:50:23;101900.06;;;5.69;69.26
71109;BME280;59614;51.012;-1.648;2023-04-04T06:52:49;101905.47;;;6.07;68.83
71109;BME280;59614;51.012;-1.648;2023-04-04T06:55:16;101904.88;;;6.17;68.14
71109;BME280;59614;51.012;-1.648;2023-04-04T06:57:42;101900.25;;;5.75;69.21
71109;BME280;59614;51.012;-1.648;2023-04-04T07:00:08;101905.44;;;5.74;69.74
71109;BME280;59614;51.012;-1.648;2023-04-04T07:02:35;101900.59;;;6.21;69.59
71109;BME280;59614;51.012;-1.648;2023-04-04T07:05:01;101897.09;;;6.57;67.69
71109;BME280;59614;51.012;-1.648;2023-04-04T07:07:28;101902.25;;;6.54;67.11
71109;BME280;59614;51.012;-1.648;2023-04-04T07:09:54;101904.47;;;6.37;68.17
71109;BME280;59614;51.012;-1.648;2023-04-04T07:12:19;101901.31;;;7.29;65.90
71109;BME280;59614;51.012;-1.648;2023-04-04T07:14:46;101902.16;;;7.28;64.01
71109;BME280;59614;51.012;-1.648;2023-04-04T07:17:11;101909.31;;;7.35;64.67
71109;BME280;59614;51.012;-1.648;2023-04-04T07:19:37;101901.38;;;7.76;61.91
71109;BME280;59614;51.012;-1.648;2023-04-04T07:22:03;101902.66;;;8.00;61.72
71109;BME280;59614;51.012;-1.648;2023-04-04T07:24:28;101896.69;;;8.07;61.33
71109;BME280;59614;51.012;-1.648;2023-04-04T07:26:53;101899.78;;;7.84;62.66
71109;BME280;59614;51.012;-1.648;2023-04-04T07:29:19;101896.59;;;7.56;62.92
71109;BME280;59614;51.012;-1.648;2023-04-04T07:31:46;101894.94;;;7.17;63.36
71109;BME280;59614;51.012;-1.648;2023-04-04T07:34:11;101901.44;;;6.93;65.12
71109;BME280;59614;51.012;-1.648;2023-04-04T07:36:37;101895.84;;;8.11;61.28
71109;BME280;59614;51.012;-1.648;2023-04-04T07:39:02;101891.66;;;8.23;62.17
71109;BME280;59614;51.012;-1.648;2023-04-04T07:41:29;101891.97;;;7.89;62.24
71109;BME280;59614;51.012;-1.648;2023-04-04T07:43:54;101897.41;;;8.00;60.17
71109;BME280;59614;51.012;-1.648;2023-04-04T07:46:20;101899.22;;;7.56;62.22
71109;BME280;59614;51.012;-1.648;2023-04-04T07:48:46;101899.84;;;8.40;61.87
71109;BME280;59614;51.012;-1.648;2023-04-04T07:51:12;101892.34;;;8.63;59.84
71109;BME280;59614;51.012;-1.648;2023-04-04T07:53:38;101894.13;;;7.63;62.28
71109;BME280;59614;51.012;-1.648;2023-04-04T07:56:04;101883.06;;;8.31;61.91
71109;BME280;59614;51.012;-1.648;2023-04-04T07:58:32;101881.59;;;7.49;63.07
71109;BME280;59614;51.012;-1.648;2023-04-04T08:00:59;101887.03;;;8.08;62.73
71109;BME280;59614;51.012;-1.648;2023-04-04T08:03:25;101880.44;;;7.81;63.05
71109;BME280;59614;51.012;-1.648;2023-04-04T08:05:50;101876.75;;;7.71;63.57
71109;BME280;59614;51.012;-1.648;2023-04-04T08:08:16;101893.94;;;8.52;63.72
71109;BME280;59614;51.012;-1.648;2023-04-04T08:10:46;101885.81;;;8.39;62.46
71109;BME280;59614;51.012;-1.648;2023-04-04T08:13:13;101870.50;;;8.69;62.95
71109;BME280;59614;51.012;-1.648;2023-04-04T08:15:39;101860.81;;;8.66;63.58
71109;BME280;59614;51.012;-1.648;2023-04-04T08:18:05;101862.56;;;8.67;63.58
71109;BME280;59614;51.012;-1.648;2023-04-04T08:20:31;101862.06;;;8.34;63.11
71109;BME280;59614;51.012;-1.648;2023-04-04T08:22:57;101855.41;;;9.21;62.60
71109;BME280;59614;51.012;-1.648;2023-04-04T08:25:23;101859.25;;;8.80;63.09
71109;BME280;59614;51.012;-1.648;2023-04-04T08:27:49;101849.00;;;9.01;62.54
71109;BME280;59614;51.012;-1.648;2023-04-04T08:30:15;101859.31;;;8.84;63.30
71109;BME280;59614;51.012;-1.648;2023-04-04T08:32:41;101859.38;;;8.88;62.27
71109;BME280;59614;51.012;-1.648;2023-04-04T08:35:08;101851.75;;;9.10;62.04
71109;BME280;59614;51.012;-1.648;2023-04-04T08:37:34;101855.59;;;8.69;61.65
71109;BME280;59614;51.012;-1.648;2023-04-04T08:40:01;101855.75;;;8.81;62.37
71109;BME280;59614;51.012;-1.648;2023-04-04T08:42:31;101849.47;;;9.39;59.23
71109;BME280;59614;51.012;-1.648;2023-04-04T08:45:00;101859.88;;;8.61;60.50
71109;BME280;59614;51.012;-1.648;2023-04-04T08:47:30;101852.38;;;8.92;60.19
71109;BME280;59614;51.012;-1.648;2023-04-04T08:49:58;101840.25;;;9.03;60.62
71109;BME280;59614;51.012;-1.648;2023-04-04T08:52:26;101846.00;;;9.43;60.68
71109;BME280;59614;51.012;-1.648;2023-04-04T08:54:52;101841.84;;;8.92;59.17
71109;BME280;59614;51.012;-1.648;2023-04-04T08:57:19;101835.19;;;8.53;60.63
71109;BME280;59614;51.012;-1.648;2023-04-04T08:59:45;101839.50;;;9.12;59.32
71109;BME280;59614;51.012;-1.648;2023-04-04T09:02:28;101828.00;;;9.05;59.88
71109;BME280;59614;51.012;-1.648;2023-04-04T09:04:55;101821.97;;;10.03;59.05
71109;BME280;59614;51.012;-1.648;2023-04-04T09:07:21;101830.50;;;8.96;55.88
71109;BME280;59614;51.012;-1.648;2023-04-04T09:09:49;101833.13;;;9.74;59.49
71109;BME280;59614;51.012;-1.648;2023-04-04T09:12:17;101829.06;;;10.11;56.50
71109;BME280;59614;51.012;-1.648;2023-04-04T09:14:43;101820.59;;;10.52;56.60
71109;BME280;59614;51.012;-1.648;2023-04-04T09:17:10;101823.41;;;10.81;53.18
71109;BME280;59614;51.012;-1.648;2023-04-04T09:19:38;101826.91;;;10.80;52.60
71109;BME280;59614;51.012;-1.648;2023-04-04T09:22:08;101831.25;;;10.71;52.09
71109;BME280;59614;51.012;-1.648;2023-04-04T09:24:43;101828.56;;;10.58;51.97
71109;BME280;59614;51.012;-1.648;2023-04-04T09:27:09;101830.84;;;10.15;51.91
71109;BME280;59614;51.012;-1.648;2023-04-04T09:29:39;101826.69;;;10.40;51.74
71109;BME280;59614;51.012;-1.648;2023-04-04T09:32:12;101827.09;;;11.22;50.18
71109;BME280;59614;51.012;-1.648;2023-04-04T09:34:38;101825.28;;;11.03;49.53
71109;BME280;59614;51.012;-1.648;2023-04-04T09:37:05;101821.09;;;12.13;48.26
71109;BME280;59614;51.012;-1.648;2023-04-04T09:39:34;101831.63;;;12.41;47.25
71109;BME280;59614;51.012;-1.648;2023-04-04T09:42:03;101837.56;;;13.21;46.66
71109;BME280;59614;51.012;-1.648;2023-04-04T09:44:29;101842.25;;;12.07;46.30
71109;BME280;59614;51.012;-1.648;2023-04-04T09:47:26;101851.94;;;11.93;46.54
71109;BME280;59614;51.012;-1.648;2023-04-04T09:49:53;101843.94;;;11.65;48.04
71109;BME280;59614;51.012;-1.648;2023-04-04T09:52:21;101850.06;;;12.88;47.12
71109;BME280;59614;51.012;-1.648;2023-04-04T09:55:01;101836.88;;;12.81;46.04
71109;BME280;59614;51.012;-1.648;2023-04-04T09:57:31;101835.75;;;13.43;43.99
71109;BME280;59614;51.012;-1.648;2023-04-04T10:00:03;101831.63;;;12.57;44.58
71109;BME280;59614;51.012;-1.648;2023-04-04T10:02:31;101847.53;;;12.46;44.15
71109;BME280;59614;51.012;-1.648;2023-04-04T10:04:57;101840.28;;;13.15;44.05
71109;BME280;59614;51.012;-1.648;2023-04-04T10:07:25;101836.06;;;12.41;44.12
71109;BME280;59614;51.012;-1.648;2023-04-04T10:09:51;101833.19;;;13.18;43.68
71109;BME280;59614;51.012;-1.648;2023-04-04T10:12:23;101847.53;;;12.33;42.62
71109;BME280;59614;51.012;-1.648;2023-04-04T10:14:58;101841.31;;;12.51;44.44
71109;BME280;59614;51.012;-1.648;2023-04-04T10:17:29;101844.91;;;12.02;44.52
71109;BME280;59614;51.012;-1.648;2023-04-04T10:19:57;101843.94;;;12.69;43.38
71109;BME280;59614;51.012;-1.648;2023-04-04T10:22:25;101838.44;;;13.31;42.66
71109;BME280;59614;51.012;-1.648;2023-04-04T10:24:51;101851.03;;;12.63;43.09
71109;BME280;59614;51.012;-1.648;2023-04-04T10:27:19;101853.72;;;12.18;44.52
71109;BME280;59614;51.012;-1.648;2023-04-04T10:29:45;101848.09;;;13.49;42.20
71109;BME280;59614;51.012;-1.648;2023-04-04T10:32:16;101837.03;;;14.11;40.40
71109;BME280;59614;51.012;-1.648;2023-04-04T10:34:48;101844.63;;;15.29;38.06
71109;BME280;59614;51.012;-1.648;2023-04-04T10:37:24;101837.50;;;15.33;38.61
71109;BME280;59614;51.012;-1.648;2023-04-04T10:42:34;101831.41;;;15.84;39.23
71109;BME280;59614;51.012;-1.648;2023-04-04T10:45:06;101839.25;;;13.47;40.64
71109;BME280;59614;51.012;-1.648;2023-04-04T10:47:31;101833.06;;;13.51;43.02
71109;BME280;59614;51.012;-1.648;2023-04-04T10:49:58;101834.41;;;15.64;40.88
71109;BME280;59614;51.012;-1.648;2023-04-04T10:52:26;101835.03;;;16.36;36.91
71109;BME280;59614;51.012;-1.648;2023-04-04T10:54:55;101830.59;;;15.19;38.19
71109;BME280;59614;51.012;-1.648;2023-04-04T10:57:22;101825.63;;;15.55;39.75
71109;BME280;59614;51.012;-1.648;2023-04-04T11:00:08;101828.56;;;14.63;40.04
71109;BME280;59614;51.012;-1.648;2023-04-04T11:08:01;101841.88;;;14.59;37.53
71109;BME280;59614;51.012;-1.648;2023-04-04T11:10:29;101830.75;;;15.71;38.22
71109;BME280;59614;51.012;-1.648;2023-04-04T11:12:56;101829.78;;;15.11;36.91
71109;BME280;59614;51.012;-1.648;2023-04-04T11:15:44;101841.00;;;13.52;41.59
71109;BME280;59614;51.012;-1.648;2023-04-04T11:18:11;101831.94;;;14.81;40.37
71109;BME280;59614;51.012;-1.648;2023-04-04T11:20:40;101835.63;;;16.52;38.26
71109;BME280;59614;51.012;-1.648;2023-04-04T11:23:19;101834.03;;;17.70;36.73
71109;BME280;59614;51.012;-1.648;2023-04-04T11:28:52;101826.88;;;17.72;36.31
71109;BME280;59614;51.012;-1.648;2023-04-04T11:34:07;101822.78;;;15.07;37.37
71109;BME280;59614;51.012;-1.648;2023-04-04T11:39:27;101829.19;;;16.64;39.52
71109;BME280;59614;51.012;-1.648;2023-04-04T11:42:04;101818.00;;;18.10;36.64
71109;BME280;59614;51.012;-1.648;2023-04-04T11:44:41;101821.22;;;18.57;35.32
71109;BME280;59614;51.012;-1.648;2023-04-04T11:47:29;101823.63;;;17.20;36.64
71109;BME280;59614;51.012;-1.648;2023-04-04T11:49:57;101821.84;;;17.60;33.89
71109;BME280;59614;51.012;-1.648;2023-04-04T11:52:22;101826.75;;;16.51;35.62
71109;BME280;59614;51.012;-1.648;2023-04-04T11:54:50;101817.94;;;15.37;37.02
71109;BME280;59614;51.012;-1.648;2023-04-04T11:57:18;101824.94;;;15.42;36.26
71109;BME280;59614;51.012;-1.648;2023-04-04T11:59:49;101821.97;;;16.69;37.85
71109;BME280;59614;51.012;-1.648;2023-04-04T12:02:19;101826.34;;;15.04;37.16
71109;BME280;59614;51.012;-1.648;2023-04-04T12:04:46;101821.38;;;17.00;34.93
71109;BME280;59614;51.012;-1.648;2023-04-04T12:07:12;101814.28;;;18.15;36.46
71109;BME280;59614;51.012;-1.648;2023-04-04T12:09:41;101815.47;;;18.03;32.58
71109;BME280;59614;51.012;-1.648;2023-04-04T12:12:12;101817.34;;;18.67;33.58
71109;BME280;59614;51.012;-1.648;2023-04-04T12:14:38;101820.63;;;16.46;35.77
71109;BME280;59614;51.012;-1.648;2023-04-04T12:17:04;101815.03;;;17.47;35.21
71109;BME280;59614;51.012;-1.648;2023-04-04T12:19:35;101815.91;;;16.61;34.51
71109;BME280;59614;51.012;-1.648;2023-04-04T12:22:01;101807.53;;;16.79;34.95
71109;BME280;59614;51.012;-1.648;2023-04-04T12:24:27;101812.25;;;17.89;33.65
71109;BME280;59614;51.012;-1.648;2023-04-04T12:26:52;101806.41;;;17.73;33.08
71109;BME280;59614;51.012;-1.648;2023-04-04T12:29:21;101810.31;;;16.28;35.35
71109;BME280;59614;51.012;-1.648;2023-04-04T12:31:48;101807.28;;;17.34;35.71
71109;BME280;59614;51.012;-1.648;2023-04-04T12:34:41;101798.53;;;16.85;36.72
71109;BME280;59614;51.012;-1.648;2023-04-04T12:37:02;101812.81;;;14.45;40.21
71109;BME280;59614;51.012;-1.648;2023-04-04T12:39:29;101799.47;;;15.24;39.45
71109;BME280;59614;51.012;-1.648;2023-04-04T12:41:57;101785.47;;;17.17;36.70
71109;BME280;59614;51.012;-1.648;2023-04-04T12:44:31;101787.00;;;17.66;35.36
71109;BME280;59614;51.012;-1.648;2023-04-04T12:47:02;101784.94;;;16.55;38.14
71109;BME280;59614;51.012;-1.648;2023-04-04T12:49:38;101795.81;;;15.32;39.21
71109;BME280;59614;51.012;-1.648;2023-04-04T12:52:05;101787.97;;;16.35;41.18
71109;BME280;59614;51.012;-1.648;2023-04-04T12:54:38;101782.16;;;15.56;39.11
71109;BME280;59614;51.012;-1.648;2023-04-04T12:57:05;101786.84;;;16.48;39.26
71109;BME280;59614;51.012;-1.648;2023-04-04T12:59:33;101787.16;;;14.42;41.74
71109;BME280;59614;51.012;-1.648;2023-04-04T13:02:19;101783.94;;;14.93;42.17
71109;BME280;59614;51.012;-1.648;2023-04-04T13:04:46;101771.47;;;14.98;41.51